^^
Paulen-Weather Station Historical Data
Daily Summary for May 12, 2022 Units:  Both    English   Metric
Daily Weekly Monthly Yearly Custom
  High: Low: Average:
Temperature: 53.6 °F /  12 °C 46.4 °F /  8 °C 50 °F /  10 °C
Dew Point: 48.2 °F /  9 °C 41 °F /  5 °C 44.8 °F /  7.1 °C
Humidity: 96% 70% 83%
Wind Speed: 21.7mph /  35km/h - 10.1mph /  16.2km/h
Wind Gust: 16.2mph /  26km/h - -
Wind- - NW
Pressure: 29.8 in /  1009.18 hPa 29.5 in /  999.59 hPa -
Precipitation: 0.03 in /  0.79 mm    
Historical Graphs
 
 
Tabular Data for May 12, 2022
Time Temperature Dew Point Pressure Wind Wind Speed Wind Gust Humidity Rainfall Rate (Hourly) solar
00:04 48.2 °F /  9 °C 46.4 °F /  8 °C 29.5in /  1000.2hPa NW 5.6mph /  9km/h 3.7mph /  6km/h 95% 0in /  0mm 0 W/m2
00:09 48.2 °F /  9 °C 46.4 °F /  8 °C 29.5in /  1000.14hPa NW 6.8mph /  11km/h 4.3mph /  7km/h 95% 0in /  0mm 0 W/m2
00:14 48.2 °F /  9 °C 46.4 °F /  8 °C 29.5in /  1000.1hPa NW 5.6mph /  9km/h 4.3mph /  7km/h 95% 0in /  0mm 0 W/m2
00:19 48.2 °F /  9 °C 46.4 °F /  8 °C 29.5in /  1000.03hPa NNW 6.2mph /  10km/h 4.3mph /  7km/h 95% 0in /  0mm 0 W/m2
00:24 48.2 °F /  9 °C 46.4 °F /  8 °C 29.5in /  999.97hPa NW 3.1mph /  5km/h 3.1mph /  5km/h 95% 0in /  0mm 0 W/m2
00:29 48.2 °F /  9 °C 46.4 °F /  8 °C 29.5in /  999.87hPa NNW 6.2mph /  10km/h 5mph /  8km/h 95% 0in /  0mm 0 W/m2
00:34 48.2 °F /  9 °C 46.4 °F /  8 °C 29.5in /  999.73hPa NW 6.8mph /  11km/h 5mph /  8km/h 95% 0in /  0mm 0 W/m2
00:39 48.2 °F /  9 °C 46.4 °F /  8 °C 29.5in /  999.73hPa NNW 8.1mph /  13km/h 6.2mph /  10km/h 95% 0in /  0mm 0 W/m2
00:44 48.2 °F /  9 °C 46.4 °F /  8 °C 29.5in /  999.76hPa N 8.7mph /  14km/h 6.8mph /  11km/h 96% 0in /  0mm 0 W/m2
00:49 48.2 °F /  9 °C 46.4 °F /  8 °C 29.5in /  999.76hPa NNW 6.2mph /  10km/h 4.3mph /  7km/h 96% 0in /  0mm 0 W/m2
00:54 48.2 °F /  9 °C 46.4 °F /  8 °C 29.5in /  999.76hPa NNW 5mph /  8km/h 3.7mph /  6km/h 96% 0in /  0mm 0 W/m2
00:59 48.2 °F /  9 °C 46.4 °F /  8 °C 29.5in /  999.7hPa NNW 5mph /  8km/h 4.3mph /  7km/h 96% 0in /  0mm 0 W/m2
01:04 48.2 °F /  9 °C 46.4 °F /  8 °C 29.5in /  999.7hPa NW 5mph /  8km/h 4.3mph /  7km/h 96% 0in /  0mm 0 W/m2
01:09 48.2 °F /  9 °C 46.4 °F /  8 °C 29.5in /  999.7hPa WNW 3.1mph /  5km/h 1.9mph /  3km/h 96% 0in /  0mm 0 W/m2
01:14 48.2 °F /  9 °C 46.4 °F /  8 °C 29.5in /  999.7hPa WNW 3.1mph /  5km/h 3.1mph /  5km/h 96% 0in /  0mm 0 W/m2
01:19 48.2 °F /  9 °C 46.4 °F /  8 °C 29.5in /  999.66hPa NW 3.1mph /  5km/h 2.5mph /  4km/h 96% 0in /  0mm 0 W/m2
01:24 48.2 °F /  9 °C 46.4 °F /  8 °C 29.5in /  999.66hPa NW 4.3mph /  7km/h 4.3mph /  7km/h 96% 0in /  0mm 0 W/m2
01:29 48.2 °F /  9 °C 46.4 °F /  8 °C 29.5in /  999.59hPa NW 5.6mph /  9km/h 3.7mph /  6km/h 95% 0in /  0mm 0 W/m2
01:34 48.2 °F /  9 °C 46.4 °F /  8 °C 29.5in /  999.59hPa NW 5mph /  8km/h 3.7mph /  6km/h 95% 0in /  0mm 0 W/m2
01:39 48.2 °F /  9 °C 46.4 °F /  8 °C 29.5in /  999.66hPa NW 5.6mph /  9km/h 3.7mph /  6km/h 95% 0in /  0mm 0 W/m2
01:44 48.2 °F /  9 °C 46.4 °F /  8 °C 29.5in /  999.7hPa NNW 4.3mph /  7km/h 2.5mph /  4km/h 95% 0in /  0mm 0 W/m2
01:49 48.2 °F /  9 °C 46.4 °F /  8 °C 29.5in /  999.66hPa NW 8.7mph /  14km/h 5mph /  8km/h 94% 0in /  0mm 0 W/m2
01:54 48.2 °F /  9 °C 46.4 °F /  8 °C 29.5in /  999.7hPa WNW 6.2mph /  10km/h 3.7mph /  6km/h 94% 0in /  0mm 0 W/m2
01:59 48.2 °F /  9 °C 46.4 °F /  8 °C 29.5in /  999.66hPa WNW 4.3mph /  7km/h 3.1mph /  5km/h 93% 0in /  0mm 0 W/m2
02:04 48.2 °F /  9 °C 46.4 °F /  8 °C 29.5in /  999.66hPa NW 4.3mph /  7km/h 2.5mph /  4km/h 93% 0in /  0mm 0 W/m2
02:09 48.2 °F /  9 °C 46.4 °F /  8 °C 29.5in /  999.66hPa NW 5mph /  8km/h 3.7mph /  6km/h 92% 0in /  0mm 0 W/m2
02:14 48.2 °F /  9 °C 44.6 °F /  7 °C 29.5in /  999.76hPa NW 8.7mph /  14km/h 7.5mph /  12km/h 92% 0in /  0mm 0 W/m2
02:19 48.2 °F /  9 °C 44.6 °F /  7 °C 29.5in /  999.8hPa NNW 8.7mph /  14km/h 6.2mph /  10km/h 91% 0in /  0mm 0 W/m2
02:24 48.2 °F /  9 °C 44.6 °F /  7 °C 29.5in /  999.73hPa NW 8.7mph /  14km/h 6.2mph /  10km/h 90% 0in /  0mm 0 W/m2
02:29 48.2 °F /  9 °C 44.6 °F /  7 °C 29.5in /  999.76hPa NW 8.7mph /  14km/h 6.8mph /  11km/h 89% 0in /  0mm 0 W/m2
02:34 48.2 °F /  9 °C 44.6 °F /  7 °C 29.5in /  999.83hPa NW 6.2mph /  10km/h 3.7mph /  6km/h 89% 0in /  0mm 0 W/m2
02:39 48.2 °F /  9 °C 44.6 °F /  7 °C 29.5in /  999.87hPa WNW 5.6mph /  9km/h 3.7mph /  6km/h 88% 0in /  0mm 0 W/m2
02:44 48.2 °F /  9 °C 44.6 °F /  7 °C 29.5in /  999.9hPa WNW 5.6mph /  9km/h 3.7mph /  6km/h 88% 0in /  0mm 0 W/m2
02:49 48.2 °F /  9 °C 44.6 °F /  7 °C 29.5in /  999.97hPa WNW 6.8mph /  11km/h 5mph /  8km/h 88% 0in /  0mm 0 W/m2
02:54 48.2 °F /  9 °C 44.6 °F /  7 °C 29.5in /  999.97hPa NW 6.2mph /  10km/h 3.7mph /  6km/h 88% 0in /  0mm 0 W/m2
02:59 48.2 °F /  9 °C 44.6 °F /  7 °C 29.5in /  1000.07hPa NW 6.8mph /  11km/h 6.8mph /  11km/h 88% 0in /  0mm 0 W/m2
03:04 48.2 °F /  9 °C 44.6 °F /  7 °C 29.5in /  1000.03hPa NW 8.7mph /  14km/h 5mph /  8km/h 88% 0in /  0mm 0 W/m2
03:09 48.2 °F /  9 °C 44.6 °F /  7 °C 29.5in /  1000.07hPa WNW 8.1mph /  13km/h 6.8mph /  11km/h 88% 0in /  0mm 0 W/m2
03:14 48.2 °F /  9 °C 44.6 °F /  7 °C 29.5in /  1000.07hPa NW 8.7mph /  14km/h 5mph /  8km/h 88% 0in /  0mm 0 W/m2
03:19 48.2 °F /  9 °C 44.6 °F /  7 °C 29.5in /  1000.07hPa NW 8.7mph /  14km/h 6.8mph /  11km/h 88% 0in /  0mm 0 W/m2
03:24 48.2 °F /  9 °C 44.6 °F /  7 °C 29.5in /  1000.14hPa NNW 9.3mph /  15km/h 5mph /  8km/h 88% 0in /  0mm 0 W/m2
03:29 48.2 °F /  9 °C 44.6 °F /  7 °C 29.5in /  1000.17hPa NW 6.8mph /  11km/h 3.7mph /  6km/h 88% 0in /  0mm 0 W/m2
03:34 48.2 °F /  9 °C 44.6 °F /  7 °C 29.5in /  1000.2hPa NW 10.6mph /  17km/h 5.6mph /  9km/h 88% 0in /  0mm 0 W/m2
03:39 48.2 °F /  9 °C 44.6 °F /  7 °C 29.5in /  1000.17hPa WNW 8.7mph /  14km/h 6.2mph /  10km/h 88% 0in /  0mm 0 W/m2
03:44 48.2 °F /  9 °C 44.6 °F /  7 °C 29.5in /  1000.27hPa NW 9.9mph /  16km/h 6.2mph /  10km/h 87% 0in /  0mm 0 W/m2
03:49 46.4 °F /  8 °C 42.8 °F /  6 °C 29.5in /  1000.37hPa NW 8.1mph /  13km/h 5.6mph /  9km/h 87% 0in /  0mm 0 W/m2
03:54 48.2 °F /  9 °C 42.8 °F /  6 °C 29.5in /  1000.41hPa WNW 5mph /  8km/h 4.3mph /  7km/h 87% 0in /  0mm 0 W/m2
03:59 46.4 °F /  8 °C 42.8 °F /  6 °C 29.5in /  1000.44hPa WNW 3.7mph /  6km/h 3.7mph /  6km/h 87% 0in /  0mm 0 W/m2
04:04 48.2 °F /  9 °C 42.8 °F /  6 °C 29.5in /  1000.47hPa NNW 4.3mph /  7km/h 3.1mph /  5km/h 87% 0in /  0mm 0 W/m2
04:09 48.2 °F /  9 °C 42.8 °F /  6 °C 29.5in /  1000.51hPa NW 6.8mph /  11km/h 3.1mph /  5km/h 87% 0in /  0mm 0 W/m2
04:14 48.2 °F /  9 °C 42.8 °F /  6 °C 29.5in /  1000.54hPa NNW 5.6mph /  9km/h 5mph /  8km/h 87% 0in /  0mm 0 W/m2
04:19 48.2 °F /  9 °C 42.8 °F /  6 °C 29.6in /  1000.58hPa NW 5.6mph /  9km/h 3.7mph /  6km/h 86% 0in /  0mm 0 W/m2
04:24 46.4 °F /  8 °C 42.8 °F /  6 °C 29.6in /  1000.68hPa NW 6.8mph /  11km/h 5mph /  8km/h 86% 0in /  0mm 0 W/m2
04:29 48.2 °F /  9 °C 42.8 °F /  6 °C 29.6in /  1000.71hPa NW 4.3mph /  7km/h 3.1mph /  5km/h 86% 0in /  0mm 0 W/m2
04:34 48.2 °F /  9 °C 42.8 °F /  6 °C 29.6in /  1000.75hPa NNW 6.2mph /  10km/h 6.8mph /  11km/h 85% 0in /  0mm 0 W/m2
04:39 48.2 °F /  9 °C 42.8 °F /  6 °C 29.6in /  1000.71hPa NW 8.7mph /  14km/h 6.2mph /  10km/h 85% 0in /  0mm 0 W/m2
04:44 48.2 °F /  9 °C 42.8 °F /  6 °C 29.6in /  1000.75hPa NW 9.9mph /  16km/h 7.5mph /  12km/h 84% 0in /  0mm 0 W/m2
04:49 48.2 °F /  9 °C 42.8 °F /  6 °C 29.6in /  1000.75hPa NW 13mph /  21km/h 9.9mph /  16km/h 84% 0in /  0mm 0 W/m2
04:54 48.2 °F /  9 °C 42.8 °F /  6 °C 29.6in /  1000.91hPa WNW 10.6mph /  17km/h 10.6mph /  17km/h 84% 0in /  0mm 0 W/m2
04:59 48.2 °F /  9 °C 42.8 °F /  6 °C 29.6in /  1000.98hPa NW 10.6mph /  17km/h 7.5mph /  12km/h 84% 0in /  0mm 0 W/m2
05:04 48.2 °F /  9 °C 42.8 °F /  6 °C 29.6in /  1000.95hPa WNW 9.3mph /  15km/h 6.2mph /  10km/h 84% 0in /  0mm 0 W/m2
05:09 48.2 °F /  9 °C 42.8 °F /  6 °C 29.6in /  1001.05hPa NW 13mph /  21km/h 7.5mph /  12km/h 84% 0in /  0mm 5 W/m2
05:14 48.2 °F /  9 °C 42.8 °F /  6 °C 29.6in /  1001.08hPa WNW 9.9mph /  16km/h 6.2mph /  10km/h 84% 0in /  0mm 7 W/m2
05:19 48.2 °F /  9 °C 42.8 °F /  6 °C 29.6in /  1001.15hPa NW 6.8mph /  11km/h 5.6mph /  9km/h 84% 0in /  0mm 12 W/m2
05:24 48.2 °F /  9 °C 42.8 °F /  6 °C 29.6in /  1001.29hPa WNW 6.2mph /  10km/h 5mph /  8km/h 84% 0in /  0mm 16 W/m2
05:29 48.2 °F /  9 °C 42.8 °F /  6 °C 29.6in /  1001.32hPa NW 13.7mph /  22km/h 8.7mph /  14km/h 83% 0in /  0mm 18 W/m2
05:34 48.2 °F /  9 °C 42.8 °F /  6 °C 29.6in /  1001.32hPa NW 9.3mph /  15km/h 6.8mph /  11km/h 83% 0in /  0mm 23 W/m2
05:39 48.2 °F /  9 °C 42.8 °F /  6 °C 29.6in /  1001.39hPa WNW 7.5mph /  12km/h 5.6mph /  9km/h 83% 0in /  0mm 35 W/m2
05:44 48.2 °F /  9 °C 42.8 °F /  6 °C 29.6in /  1001.49hPa WNW 8.1mph /  13km/h 6.8mph /  11km/h 82% 0in /  0mm 35 W/m2
05:49 48.2 °F /  9 °C 42.8 °F /  6 °C 29.6in /  1001.59hPa NW 10.6mph /  17km/h 6.8mph /  11km/h 82% 0in /  0mm 49 W/m2
05:54 48.2 °F /  9 °C 42.8 °F /  6 °C 29.6in /  1001.56hPa NW 6.8mph /  11km/h 5.6mph /  9km/h 82% 0in /  0mm 49 W/m2
05:59 48.2 °F /  9 °C 42.8 °F /  6 °C 29.6in /  1001.56hPa WNW 9.3mph /  15km/h 5.6mph /  9km/h 82% 0in /  0mm 67 W/m2
06:04 48.2 °F /  9 °C 42.8 °F /  6 °C 29.6in /  1001.66hPa WNW 13mph /  21km/h 12.4mph /  20km/h 81% 0in /  0mm 76 W/m2
06:09 48.2 °F /  9 °C 42.8 °F /  6 °C 29.6in /  1001.69hPa WNW 10.6mph /  17km/h 9.3mph /  15km/h 80% 0in /  0mm 81 W/m2
06:14 48.2 °F /  9 °C 42.8 °F /  6 °C 29.6in /  1001.83hPa NW 13mph /  21km/h 8.7mph /  14km/h 79% 0in /  0mm 91 W/m2
06:19 48.2 °F /  9 °C 42.8 °F /  6 °C 29.6in /  1001.93hPa WNW 10.6mph /  17km/h 7.5mph /  12km/h 79% 0in /  0mm 102 W/m2
06:24 48.2 °F /  9 °C 41 °F /  5 °C 29.6in /  1002hPa WNW 9.9mph /  16km/h 6.8mph /  11km/h 78% 0in /  0mm 109 W/m2
06:29 48.2 °F /  9 °C 41 °F /  5 °C 29.6in /  1002hPa NW 9.9mph /  16km/h 8.1mph /  13km/h 78% 0in /  0mm 116 W/m2
06:34 48.2 °F /  9 °C 41 °F /  5 °C 29.6in /  1002.03hPa NW 11.8mph /  19km/h 9.9mph /  16km/h 77% 0in /  0mm 125 W/m2
06:39 48.2 °F /  9 °C 41 °F /  5 °C 29.6in /  1002.07hPa WNW 13mph /  21km/h 9.9mph /  16km/h 77% 0in /  0mm 134 W/m2
06:44 48.2 °F /  9 °C 41 °F /  5 °C 29.6in /  1002.17hPa NW 10.6mph /  17km/h 6.8mph /  11km/h 77% 0in /  0mm 144 W/m2
06:49 48.2 °F /  9 °C 41 °F /  5 °C 29.6in /  1002.3hPa NW 9.9mph /  16km/h 6.2mph /  10km/h 76% 0in /  0mm 149 W/m2
06:54 48.2 °F /  9 °C 41 °F /  5 °C 29.6in /  1002.37hPa NW 9.9mph /  16km/h 6.8mph /  11km/h 76% 0in /  0mm 162 W/m2
06:59 48.2 °F /  9 °C 41 °F /  5 °C 29.6in /  1002.44hPa WNW 10.6mph /  17km/h 7.5mph /  12km/h 76% 0in /  0mm 167 W/m2
07:04 48.2 °F /  9 °C 41 °F /  5 °C 29.6in /  1002.51hPa NW 9.3mph /  15km/h 7.5mph /  12km/h 75% 0in /  0mm 199 W/m2
07:09 48.2 °F /  9 °C 41 °F /  5 °C 29.6in /  1002.64hPa N 11.8mph /  19km/h 6.2mph /  10km/h 75% 0in /  0mm 199 W/m2
07:14 48.2 °F /  9 °C 41 °F /  5 °C 29.6in /  1002.74hPa NW 9.3mph /  15km/h 7.5mph /  12km/h 76% 0in /  0mm 214 W/m2
07:19 50 °F /  10 °C 42.8 °F /  6 °C 29.6in /  1002.91hPa NW 8.1mph /  13km/h 5.6mph /  9km/h 76% 0in /  0mm 221 W/m2
07:24 50 °F /  10 °C 42.8 °F /  6 °C 29.6in /  1002.98hPa WNW 9.3mph /  15km/h 5.6mph /  9km/h 76% 0in /  0mm 230 W/m2
07:29 50 °F /  10 °C 42.8 °F /  6 °C 29.6in /  1003.05hPa NW 9.9mph /  16km/h 6.8mph /  11km/h 76% 0in /  0mm 243 W/m2
07:34 50 °F /  10 °C 42.8 °F /  6 °C 29.6in /  1003.15hPa NW 9.3mph /  15km/h 6.2mph /  10km/h 75% 0in /  0mm 255 W/m2
07:39 50 °F /  10 °C 42.8 °F /  6 °C 29.6in /  1003.29hPa NW 8.1mph /  13km/h 5mph /  8km/h 75% 0in /  0mm 264 W/m2
07:44 50 °F /  10 °C 42.8 °F /  6 °C 29.6in /  1003.32hPa NW 13.7mph /  22km/h 9.3mph /  15km/h 74% 0in /  0mm 274 W/m2
07:49 50 °F /  10 °C 42.8 °F /  6 °C 29.6in /  1003.42hPa NW 11.2mph /  18km/h 6.8mph /  11km/h 74% 0in /  0mm 288 W/m2
07:54 51.8 °F /  11 °C 42.8 °F /  6 °C 29.6in /  1003.56hPa WNW 11.2mph /  18km/h 7.5mph /  12km/h 74% 0in /  0mm 299 W/m2
07:59 51.8 °F /  11 °C 42.8 °F /  6 °C 29.6in /  1003.62hPa WNW 8.7mph /  14km/h 8.1mph /  13km/h 74% 0in /  0mm 330 W/m2
08:04 51.8 °F /  11 °C 42.8 °F /  6 °C 29.6in /  1003.69hPa NW 11.8mph /  19km/h 8.7mph /  14km/h 74% 0in /  0mm 343 W/m2
08:09 51.8 °F /  11 °C 42.8 °F /  6 °C 29.6in /  1003.76hPa NW 11.2mph /  18km/h 8.7mph /  14km/h 74% 0in /  0mm 348 W/m2
08:14 51.8 °F /  11 °C 42.8 °F /  6 °C 29.6in /  1003.86hPa NW 16.2mph /  26km/h 9.9mph /  16km/h 73% 0in /  0mm 346 W/m2
08:19 51.8 °F /  11 °C 42.8 °F /  6 °C 29.7in /  1004hPa NW 9.3mph /  15km/h 8.1mph /  13km/h 73% 0in /  0mm 376 W/m2
08:24 51.8 °F /  11 °C 42.8 °F /  6 °C 29.7in /  1004.1hPa WNW 10.6mph /  17km/h 6.8mph /  11km/h 73% 0in /  0mm 383 W/m2
08:29 51.8 °F /  11 °C 44.6 °F /  7 °C 29.7in /  1004.23hPa NW 9.9mph /  16km/h 6.8mph /  11km/h 73% 0in /  0mm 401 W/m2
08:34 51.8 °F /  11 °C 44.6 °F /  7 °C 29.7in /  1004.2hPa NW 8.1mph /  13km/h 5mph /  8km/h 73% 0in /  0mm 415 W/m2
08:39 51.8 °F /  11 °C 44.6 °F /  7 °C 29.7in /  1004.3hPa NW 10.6mph /  17km/h 8.7mph /  14km/h 73% 0in /  0mm 471 W/m2
08:44 51.8 °F /  11 °C 44.6 °F /  7 °C 29.7in /  1004.37hPa NW 14.9mph /  24km/h 10.6mph /  17km/h 73% 0in /  0mm 471 W/m2
08:49 51.8 °F /  11 °C 44.6 °F /  7 °C 29.7in /  1004.4hPa N 11.8mph /  19km/h 8.1mph /  13km/h 74% 0in /  0mm 197 W/m2
08:54 51.8 °F /  11 °C 44.6 °F /  7 °C 29.7in /  1004.57hPa NW 9.9mph /  16km/h 6.2mph /  10km/h 76% 0in /  0mm 436 W/m2
08:59 51.8 °F /  11 °C 44.6 °F /  7 °C 29.7in /  1004.67hPa WNW 12.4mph /  20km/h 8.1mph /  13km/h 77% 0in /  0mm 448 W/m2
09:04 51.8 °F /  11 °C 44.6 °F /  7 °C 29.7in /  1004.71hPa NW 14.3mph /  23km/h 8.7mph /  14km/h 77% 0in /  0mm 457 W/m2
09:09 51.8 °F /  11 °C 44.6 °F /  7 °C 29.7in /  1004.71hPa NW 11.2mph /  18km/h 8.7mph /  14km/h 76% 0in /  0mm 469 W/m2
09:14 53.6 °F /  12 °C 44.6 °F /  7 °C 29.7in /  1004.88hPa WNW 14.3mph /  23km/h 8.7mph /  14km/h 75% 0in /  0mm 480 W/m2
09:19 53.6 °F /  12 °C 44.6 °F /  7 °C 29.7in /  1004.94hPa NW 13mph /  21km/h 8.7mph /  14km/h 74% 0in /  0mm 487 W/m2
09:24 53.6 °F /  12 °C 44.6 °F /  7 °C 29.7in /  1005.08hPa NW 9.3mph /  15km/h 6.2mph /  10km/h 73% 0in /  0mm 497 W/m2
09:29 53.6 °F /  12 °C 44.6 °F /  7 °C 29.7in /  1005.15hPa NW 8.7mph /  14km/h 6.8mph /  11km/h 73% 0in /  0mm 348 W/m2
09:34 53.6 °F /  12 °C 44.6 °F /  7 °C 29.7in /  1005.28hPa NW 13mph /  21km/h 9.3mph /  15km/h 71% 0in /  0mm 269 W/m2
09:39 51.8 °F /  11 °C 44.6 °F /  7 °C 29.7in /  1005.32hPa NNW 16.2mph /  26km/h 12.4mph /  20km/h 72% 0in /  0mm 269 W/m2
09:44 51.8 °F /  11 °C 44.6 °F /  7 °C 29.7in /  1005.32hPa NW 12.4mph /  20km/h 9.9mph /  16km/h 72% 0in /  0mm 227 W/m2
09:49 53.6 °F /  12 °C 44.6 °F /  7 °C 29.7in /  1005.42hPa NW 10.6mph /  17km/h 5.6mph /  9km/h 72% 0in /  0mm 613 W/m2
09:54 53.6 °F /  12 °C 44.6 °F /  7 °C 29.7in /  1005.52hPa NNW 10.6mph /  17km/h 8.1mph /  13km/h 71% 0in /  0mm 701 W/m2
09:59 53.6 °F /  12 °C 44.6 °F /  7 °C 29.7in /  1005.52hPa NW 12.4mph /  20km/h 6.8mph /  11km/h 70% 0in /  0mm 701 W/m2
10:04 53.6 °F /  12 °C 44.6 °F /  7 °C 29.7in /  1005.55hPa NW 11.8mph /  19km/h 8.1mph /  13km/h 70% 0in /  0mm 308 W/m2
10:09 53.6 °F /  12 °C 44.6 °F /  7 °C 29.7in /  1005.62hPa NW 11.8mph /  19km/h 8.7mph /  14km/h 70% 0in /  0mm 278 W/m2
10:14 53.6 °F /  12 °C 44.6 °F /  7 °C 29.7in /  1005.69hPa NW 9.9mph /  16km/h 8.1mph /  13km/h 72% 0in /  0mm 640 W/m2
10:19 53.6 °F /  12 °C 44.6 °F /  7 °C 29.7in /  1005.72hPa NNW 14.9mph /  24km/h 9.9mph /  16km/h 74% 0in /  0mm 640 W/m2
10:24 53.6 °F /  12 °C 44.6 °F /  7 °C 29.7in /  1005.76hPa NW 10.6mph /  17km/h 8.1mph /  13km/h 75% 0in /  0mm 742 W/m2
10:29 53.6 °F /  12 °C 44.6 °F /  7 °C 29.7in /  1005.86hPa NW 11.8mph /  19km/h 9.3mph /  15km/h 74% 0in /  0mm 779 W/m2
10:34 53.6 °F /  12 °C 44.6 °F /  7 °C 29.7in /  1005.93hPa NW 11.2mph /  18km/h 8.1mph /  13km/h 72% 0in /  0mm 779 W/m2
10:39 53.6 °F /  12 °C 46.4 °F /  8 °C 29.7in /  1005.96hPa NW 11.2mph /  18km/h 9.3mph /  15km/h 73% 0in /  0mm 350 W/m2
10:44 53.6 °F /  12 °C 46.4 °F /  8 °C 29.7in /  1006.1hPa WNW 9.3mph /  15km/h 5.6mph /  9km/h 75% 0in /  0mm 197 W/m2
10:49 53.6 °F /  12 °C 44.6 °F /  7 °C 29.7in /  1006.16hPa NW 9.3mph /  15km/h 6.8mph /  11km/h 75% 0in /  0mm 134 W/m2
10:54 51.8 °F /  11 °C 44.6 °F /  7 °C 29.7in /  1006.43hPa NW 12.4mph /  20km/h 9.9mph /  16km/h 76% 0in /  0mm 141 W/m2
10:59 51.8 °F /  11 °C 44.6 °F /  7 °C 29.7in /  1006.5hPa NNW 6.2mph /  10km/h 4.3mph /  7km/h 76% 0in /  0mm 272 W/m2
11:04 51.8 °F /  11 °C 44.6 °F /  7 °C 29.7in /  1006.6hPa NW 9.3mph /  15km/h 8.1mph /  13km/h 77% 0in /  0mm 253 W/m2
11:09 51.8 °F /  11 °C 44.6 °F /  7 °C 29.7in /  1006.77hPa NNW 9.9mph /  16km/h 9.3mph /  15km/h 78% 0in /  0mm 135 W/m2
11:14 50 °F /  10 °C 44.6 °F /  7 °C 29.7in /  1006.81hPa NW 9.3mph /  15km/h 7.5mph /  12km/h 79% 0in /  0mm 120 W/m2
11:19 50 °F /  10 °C 44.6 °F /  7 °C 29.7in /  1006.84hPa NW 6.8mph /  11km/h 5.6mph /  9km/h 79% 0in /  0mm 171 W/m2
11:24 50 °F /  10 °C 44.6 °F /  7 °C 29.7in /  1006.87hPa NW 6.8mph /  11km/h 6.2mph /  10km/h 80% 0in /  0mm 171 W/m2
11:29 50 °F /  10 °C 44.6 °F /  7 °C 29.7in /  1006.87hPa NW 5.6mph /  9km/h 4.3mph /  7km/h 79% 0in /  0mm 232 W/m2
11:34 51.8 °F /  11 °C 44.6 °F /  7 °C 29.7in /  1006.81hPa NW 6.2mph /  10km/h 4.3mph /  7km/h 79% 0in /  0mm 250 W/m2
11:39 51.8 °F /  11 °C 44.6 °F /  7 °C 29.7in /  1006.87hPa NW 11.2mph /  18km/h 6.8mph /  11km/h 78% 0in /  0mm 237 W/m2
11:44 51.8 °F /  11 °C 44.6 °F /  7 °C 29.7in /  1006.87hPa NNW 13mph /  21km/h 11.2mph /  18km/h 77% 0in /  0mm 301 W/m2
11:49 51.8 °F /  11 °C 44.6 °F /  7 °C 29.7in /  1006.94hPa NNW 12.4mph /  20km/h 8.7mph /  14km/h 76% 0in /  0mm 316 W/m2
11:54 51.8 °F /  11 °C 44.6 °F /  7 °C 29.7in /  1006.94hPa NNW 14.3mph /  23km/h 10.6mph /  17km/h 76% 0in /  0mm 313 W/m2
11:59 51.8 °F /  11 °C 46.4 °F /  8 °C 29.7in /  1007.01hPa NNW 14.3mph /  23km/h 11.2mph /  18km/h 78% 0in /  0mm 322 W/m2
12:04 51.8 °F /  11 °C 46.4 °F /  8 °C 29.7in /  1007.01hPa N 14.9mph /  24km/h 10.6mph /  17km/h 81% 0in /  0mm 330 W/m2
12:09 51.8 °F /  11 °C 46.4 °F /  8 °C 29.7in /  1007.15hPa NNW 14.3mph /  23km/h 10.6mph /  17km/h 84% 0in /  0mm 290 W/m2
12:14 50 °F /  10 °C 46.4 °F /  8 °C 29.7in /  1007.25hPa NNW 16.2mph /  26km/h 10.6mph /  17km/h 85% 0in /  0mm 427 W/m2
12:19 50 °F /  10 °C 46.4 °F /  8 °C 29.7in /  1007.28hPa NW 13mph /  21km/h 8.7mph /  14km/h 86% 0in /  0mm 348 W/m2
12:24 51.8 °F /  11 °C 48.2 °F /  9 °C 29.7in /  1007.25hPa N 12.4mph /  20km/h 5.6mph /  9km/h 87% 0in /  0mm 376 W/m2
12:29 51.8 °F /  11 °C 46.4 °F /  8 °C 29.7in /  1007.32hPa NNW 11.8mph /  19km/h 6.8mph /  11km/h 85% 0in /  0mm 429 W/m2
12:34 51.8 °F /  11 °C 46.4 °F /  8 °C 29.7in /  1007.25hPa NNW 11.8mph /  19km/h 8.7mph /  14km/h 84% 0in /  0mm 867 W/m2
12:39 51.8 °F /  11 °C 46.4 °F /  8 °C 29.7in /  1007.25hPa NNW 16.2mph /  26km/h 11.2mph /  18km/h 81% 0in /  0mm 956 W/m2
12:44 51.8 °F /  11 °C 46.4 °F /  8 °C 29.7in /  1007.32hPa NNW 14.9mph /  24km/h 9.9mph /  16km/h 80% 0in /  0mm 373 W/m2
12:49 51.8 °F /  11 °C 46.4 °F /  8 °C 29.8in /  1007.38hPa N 14.3mph /  23km/h 13.7mph /  22km/h 81% 0.01in /  0.2mm 250 W/m2
12:54 50 °F /  10 °C 46.4 °F /  8 °C 29.7in /  1007.32hPa NNW 12.4mph /  20km/h 8.7mph /  14km/h 85% 0.01in /  0.2mm 250 W/m2
12:59 50 °F /  10 °C 46.4 °F /  8 °C 29.8in /  1007.42hPa NNW 11.2mph /  18km/h 9.9mph /  16km/h 86% 0.01in /  0.2mm 200 W/m2
13:04 50 °F /  10 °C 46.4 °F /  8 °C 29.8in /  1007.45hPa NNW 10.6mph /  17km/h 6.8mph /  11km/h 86% 0.01in /  0.2mm 253 W/m2
13:09 50 °F /  10 °C 46.4 °F /  8 °C 29.8in /  1007.52hPa NNW 7.5mph /  12km/h 6.8mph /  11km/h 87% 0.01in /  0.2mm 269 W/m2
13:14 50 °F /  10 °C 46.4 °F /  8 °C 29.8in /  1007.55hPa NW 8.7mph /  14km/h 4.3mph /  7km/h 87% 0.01in /  0.2mm 221 W/m2
13:19 50 °F /  10 °C 46.4 °F /  8 °C 29.8in /  1007.65hPa NNW 11.2mph /  18km/h 8.1mph /  13km/h 86% 0.02in /  0.41mm 104 W/m2
13:24 50 °F /  10 °C 44.6 °F /  7 °C 29.8in /  1007.65hPa NNW 13.7mph /  22km/h 10.6mph /  17km/h 85% 0.02in /  0.61mm 151 W/m2
13:29 48.2 °F /  9 °C 44.6 °F /  7 °C 29.8in /  1007.69hPa NNW 9.3mph /  15km/h 5.6mph /  9km/h 86% 0.02in /  0.61mm 172 W/m2
13:34 48.2 °F /  9 °C 44.6 °F /  7 °C 29.8in /  1007.72hPa NNW 6.2mph /  10km/h 5.6mph /  9km/h 87% 0.02in /  0.61mm 299 W/m2
13:39 48.2 °F /  9 °C 46.4 °F /  8 °C 29.8in /  1007.76hPa N 8.7mph /  14km/h 6.2mph /  10km/h 88% 0.02in /  0.61mm 299 W/m2
13:44 48.2 °F /  9 °C 46.4 °F /  8 °C 29.8in /  1007.76hPa NNW 13mph /  21km/h 13mph /  21km/h 89% 0.02in /  0.61mm 188 W/m2
13:49 48.2 °F /  9 °C 46.4 °F /  8 °C 29.8in /  1007.76hPa N 14.9mph /  24km/h 11.2mph /  18km/h 89% 0.02in /  0.61mm 232 W/m2
13:54 48.2 °F /  9 °C 46.4 °F /  8 °C 29.8in /  1007.76hPa N 11.2mph /  18km/h 9.3mph /  15km/h 90% 0.02in /  0.41mm 232 W/m2
13:59 48.2 °F /  9 °C 46.4 °F /  8 °C 29.8in /  1007.76hPa N 12.4mph /  20km/h 9.3mph /  15km/h 91% 0.02in /  0.61mm 541 W/m2
14:04 48.2 °F /  9 °C 46.4 °F /  8 °C 29.8in /  1007.76hPa N 13.7mph /  22km/h 11.8mph /  19km/h 91% 0.02in /  0.61mm 230 W/m2
14:09 48.2 °F /  9 °C 46.4 °F /  8 °C 29.8in /  1007.72hPa N 14.9mph /  24km/h 11.8mph /  19km/h 91% 0.02in /  0.61mm 675 W/m2
14:14 50 °F /  10 °C 48.2 °F /  9 °C 29.8in /  1007.59hPa N 18mph /  29km/h 11.8mph /  19km/h 91% 0.02in /  0.61mm 765 W/m2
14:19 50 °F /  10 °C 48.2 °F /  9 °C 29.8in /  1007.59hPa NNW 11.2mph /  18km/h 8.7mph /  14km/h 91% 0.02in /  0.61mm 800 W/m2
14:24 50 °F /  10 °C 48.2 °F /  9 °C 29.8in /  1007.59hPa N 16.2mph /  26km/h 12.4mph /  20km/h 89% 0.02in /  0.41mm 798 W/m2
14:29 51.8 °F /  11 °C 48.2 °F /  9 °C 29.8in /  1007.59hPa N 13.7mph /  22km/h 10.6mph /  17km/h 89% 0.01in /  0.2mm 756 W/m2
14:34 51.8 °F /  11 °C 48.2 °F /  9 °C 29.8in /  1007.55hPa N 14.9mph /  24km/h 11.2mph /  18km/h 88% 0.01in /  0.2mm 735 W/m2
14:39 51.8 °F /  11 °C 48.2 °F /  9 °C 29.8in /  1007.55hPa N 13mph /  21km/h 8.1mph /  13km/h 87% 0.01in /  0.2mm 745 W/m2
14:44 51.8 °F /  11 °C 48.2 °F /  9 °C 29.8in /  1007.52hPa N 13mph /  21km/h 10.6mph /  17km/h 86% 0.01in /  0.2mm 737 W/m2
14:49 51.8 °F /  11 °C 48.2 °F /  9 °C 29.8in /  1007.52hPa N 12.4mph /  20km/h 9.3mph /  15km/h 85% 0.01in /  0.2mm 770 W/m2
14:54 51.8 °F /  11 °C 48.2 °F /  9 °C 29.8in /  1007.55hPa N 13.7mph /  22km/h 10.6mph /  17km/h 85% 0.01in /  0.2mm 773 W/m2
14:59 51.8 °F /  11 °C 48.2 °F /  9 °C 29.8in /  1007.52hPa N 11.8mph /  19km/h 11.2mph /  18km/h 83% 0.01in /  0.2mm 784 W/m2
15:04 51.8 °F /  11 °C 48.2 °F /  9 °C 29.8in /  1007.59hPa N 11.2mph /  18km/h 7.5mph /  12km/h 83% 0in /  0mm 784 W/m2
15:09 51.8 °F /  11 °C 48.2 °F /  9 °C 29.8in /  1007.59hPa N 10.6mph /  17km/h 8.1mph /  13km/h 83% 0in /  0mm 874 W/m2
15:14 51.8 °F /  11 °C 46.4 °F /  8 °C 29.8in /  1007.62hPa NNW 14.9mph /  24km/h 10.6mph /  17km/h 82% 0in /  0mm 800 W/m2
15:19 51.8 °F /  11 °C 46.4 °F /  8 °C 29.8in /  1007.65hPa N 13mph /  21km/h 8.7mph /  14km/h 83% 0in /  0mm 420 W/m2
15:24 51.8 °F /  11 °C 46.4 °F /  8 °C 29.8in /  1007.65hPa NNW 12.4mph /  20km/h 11.8mph /  19km/h 83% 0in /  0mm 274 W/m2
15:29 51.8 °F /  11 °C 46.4 °F /  8 °C 29.8in /  1007.55hPa N 16.8mph /  27km/h 11.8mph /  19km/h 82% 0in /  0mm 773 W/m2
15:34 51.8 °F /  11 °C 46.4 °F /  8 °C 29.8in /  1007.59hPa N 14.9mph /  24km/h 13mph /  21km/h 82% 0in /  0mm 891 W/m2
15:39 51.8 °F /  11 °C 46.4 °F /  8 °C 29.8in /  1007.59hPa N 16.2mph /  26km/h 10.6mph /  17km/h 81% 0in /  0mm 826 W/m2
15:44 53.6 °F /  12 °C 46.4 °F /  8 °C 29.8in /  1007.52hPa N 13mph /  21km/h 9.9mph /  16km/h 80% 0in /  0mm 754 W/m2
15:49 53.6 °F /  12 °C 46.4 °F /  8 °C 29.8in /  1007.55hPa N 14.3mph /  23km/h 10.6mph /  17km/h 78% 0in /  0mm 802 W/m2
15:54 53.6 °F /  12 °C 46.4 °F /  8 °C 29.8in /  1007.72hPa N 14.3mph /  23km/h 9.3mph /  15km/h 78% 0in /  0mm 802 W/m2
15:59 53.6 °F /  12 °C 46.4 °F /  8 °C 29.8in /  1007.79hPa NNW 13mph /  21km/h 9.9mph /  16km/h 77% 0in /  0mm 763 W/m2
16:04 53.6 °F /  12 °C 46.4 °F /  8 °C 29.8in /  1007.76hPa NNW 10.6mph /  17km/h 8.1mph /  13km/h 75% 0in /  0mm 649 W/m2
16:09 53.6 °F /  12 °C 46.4 °F /  8 °C 29.8in /  1007.76hPa N 16.2mph /  26km/h 13mph /  21km/h 75% 0in /  0mm 636 W/m2
16:14 53.6 °F /  12 °C 46.4 °F /  8 °C 29.8in /  1007.76hPa N 13.7mph /  22km/h 10.6mph /  17km/h 78% 0in /  0mm 657 W/m2
16:19 53.6 °F /  12 °C 46.4 °F /  8 °C 29.8in /  1007.82hPa N 13.7mph /  22km/h 11.2mph /  18km/h 79% 0in /  0mm 729 W/m2
16:24 53.6 °F /  12 °C 46.4 °F /  8 °C 29.8in /  1007.86hPa N 17.4mph /  28km/h 14.3mph /  23km/h 79% 0in /  0mm 223 W/m2
16:29 51.8 °F /  11 °C 46.4 °F /  8 °C 29.8in /  1007.86hPa N 18.6mph /  30km/h 14.3mph /  23km/h 81% 0in /  0mm 649 W/m2
16:34 51.8 °F /  11 °C 46.4 °F /  8 °C 29.8in /  1007.89hPa N 15.5mph /  25km/h 12.4mph /  20km/h 81% 0in /  0mm 649 W/m2
16:39 51.8 °F /  11 °C 46.4 °F /  8 °C 29.8in /  1007.86hPa N 15.5mph /  25km/h 12.4mph /  20km/h 79% 0in /  0mm 606 W/m2
16:44 53.6 °F /  12 °C 46.4 °F /  8 °C 29.8in /  1007.86hPa N 16.8mph /  27km/h 13.7mph /  22km/h 78% 0in /  0mm 606 W/m2
16:49 51.8 °F /  11 °C 46.4 °F /  8 °C 29.8in /  1007.89hPa N 16.8mph /  27km/h 15.5mph /  25km/h 78% 0in /  0mm 629 W/m2
16:54 51.8 °F /  11 °C 46.4 °F /  8 °C 29.8in /  1007.92hPa N 21.7mph /  35km/h 16.2mph /  26km/h 79% 0in /  0mm 629 W/m2
16:59 51.8 °F /  11 °C 46.4 °F /  8 °C 29.8in /  1007.89hPa N 15.5mph /  25km/h 13mph /  21km/h 78% 0in /  0mm 594 W/m2
17:04 53.6 °F /  12 °C 46.4 °F /  8 °C 29.8in /  1007.92hPa N 15.5mph /  25km/h 11.2mph /  18km/h 77% 0in /  0mm 594 W/m2
17:09 53.6 °F /  12 °C 46.4 °F /  8 °C 29.8in /  1008.03hPa NNW 13.7mph /  22km/h 11.2mph /  18km/h 77% 0in /  0mm 601 W/m2
17:14 53.6 °F /  12 °C 46.4 °F /  8 °C 29.8in /  1008.03hPa N 15.5mph /  25km/h 11.2mph /  18km/h 77% 0in /  0mm 587 W/m2
17:19 51.8 °F /  11 °C 46.4 °F /  8 °C 29.8in /  1007.99hPa N 13.7mph /  22km/h 10.6mph /  17km/h 78% 0in /  0mm 519 W/m2
17:24 51.8 °F /  11 °C 46.4 °F /  8 °C 29.8in /  1007.99hPa N 14.3mph /  23km/h 8.7mph /  14km/h 79% 0in /  0mm 522 W/m2
17:29 51.8 °F /  11 °C 46.4 °F /  8 °C 29.8in /  1008.03hPa N 14.9mph /  24km/h 9.9mph /  16km/h 78% 0in /  0mm 538 W/m2
17:34 51.8 °F /  11 °C 46.4 °F /  8 °C 29.8in /  1007.96hPa N 15.5mph /  25km/h 11.8mph /  19km/h 78% 0in /  0mm 476 W/m2
17:39 51.8 °F /  11 °C 46.4 °F /  8 °C 29.8in /  1007.96hPa N 14.9mph /  24km/h 9.9mph /  16km/h 79% 0in /  0mm 471 W/m2
17:44 51.8 °F /  11 °C 46.4 °F /  8 °C 29.8in /  1007.99hPa N 18mph /  29km/h 13.7mph /  22km/h 80% 0in /  0mm 492 W/m2
17:49 51.8 °F /  11 °C 46.4 °F /  8 °C 29.8in /  1007.99hPa N 16.8mph /  27km/h 13.7mph /  22km/h 81% 0in /  0mm 454 W/m2
17:54 51.8 °F /  11 °C 46.4 °F /  8 °C 29.8in /  1008.06hPa N 15.5mph /  25km/h 9.3mph /  15km/h 81% 0in /  0mm 473 W/m2
17:59 51.8 °F /  11 °C 44.6 °F /  7 °C 29.8in /  1008.09hPa N 14.9mph /  24km/h 10.6mph /  17km/h 81% 0in /  0mm 510 W/m2
18:04 51.8 °F /  11 °C 46.4 °F /  8 °C 29.8in /  1008.09hPa N 13mph /  21km/h 9.3mph /  15km/h 80% 0in /  0mm 432 W/m2
18:09 51.8 °F /  11 °C 44.6 °F /  7 °C 29.8in /  1008.16hPa N 14.9mph /  24km/h 9.3mph /  15km/h 80% 0in /  0mm 434 W/m2
18:14 51.8 °F /  11 °C 44.6 °F /  7 °C 29.8in /  1008.2hPa N 11.8mph /  19km/h 9.3mph /  15km/h 79% 0in /  0mm 420 W/m2
18:19 51.8 °F /  11 °C 46.4 °F /  8 °C 29.8in /  1008.13hPa NNW 10.6mph /  17km/h 6.8mph /  11km/h 78% 0in /  0mm 404 W/m2
18:24 51.8 °F /  11 °C 46.4 °F /  8 °C 29.8in /  1008.2hPa NNW 11.2mph /  18km/h 6.2mph /  10km/h 76% 0in /  0mm 374 W/m2
18:29 53.6 °F /  12 °C 44.6 °F /  7 °C 29.8in /  1008.16hPa NNW 11.2mph /  18km/h 7.5mph /  12km/h 75% 0in /  0mm 373 W/m2
18:34 53.6 °F /  12 °C 44.6 °F /  7 °C 29.8in /  1008.23hPa ENE 11.8mph /  19km/h 8.7mph /  14km/h 74% 0in /  0mm 343 W/m2
18:39 53.6 °F /  12 °C 44.6 °F /  7 °C 29.8in /  1008.3hPa NW 11.2mph /  18km/h 8.7mph /  14km/h 74% 0in /  0mm 329 W/m2
18:44 53.6 °F /  12 °C 44.6 °F /  7 °C 29.8in /  1008.33hPa NNW 9.9mph /  16km/h 8.1mph /  13km/h 74% 0in /  0mm 325 W/m2
18:49 53.6 °F /  12 °C 44.6 °F /  7 °C 29.8in /  1008.36hPa NNW 10.6mph /  17km/h 7.5mph /  12km/h 74% 0in /  0mm 373 W/m2
18:54 51.8 °F /  11 °C 44.6 °F /  7 °C 29.8in /  1008.36hPa NNW 13.7mph /  22km/h 8.7mph /  14km/h 74% 0in /  0mm 355 W/m2
18:59 51.8 °F /  11 °C 44.6 °F /  7 °C 29.8in /  1008.3hPa NNE 8.1mph /  13km/h 6.2mph /  10km/h 75% 0in /  0mm 338 W/m2
19:04 51.8 °F /  11 °C 44.6 °F /  7 °C 29.8in /  1008.33hPa NNW 11.2mph /  18km/h 8.1mph /  13km/h 74% 0in /  0mm 271 W/m2
19:09 51.8 °F /  11 °C 44.6 °F /  7 °C 29.8in /  1008.33hPa NNW 13mph /  21km/h 8.1mph /  13km/h 74% 0in /  0mm 253 W/m2
19:14 51.8 °F /  11 °C 44.6 °F /  7 °C 29.8in /  1008.3hPa NW 9.9mph /  16km/h 5.6mph /  9km/h 75% 0in /  0mm 246 W/m2
19:19 51.8 °F /  11 °C 44.6 °F /  7 °C 29.8in /  1008.3hPa NNW 10.6mph /  17km/h 8.7mph /  14km/h 75% 0in /  0mm 246 W/m2
19:24 51.8 °F /  11 °C 44.6 °F /  7 °C 29.8in /  1008.3hPa NW 8.1mph /  13km/h 6.2mph /  10km/h 76% 0in /  0mm 121 W/m2
19:29 51.8 °F /  11 °C 44.6 °F /  7 °C 29.8in /  1008.23hPa NNW 9.9mph /  16km/h 6.8mph /  11km/h 77% 0in /  0mm 144 W/m2
19:34 51.8 °F /  11 °C 44.6 °F /  7 °C 29.8in /  1008.26hPa NNW 11.2mph /  18km/h 7.5mph /  12km/h 76% 0in /  0mm 144 W/m2
19:39 50 °F /  10 °C 42.8 °F /  6 °C 29.8in /  1008.26hPa NNW 9.3mph /  15km/h 6.2mph /  10km/h 76% 0in /  0mm 241 W/m2
19:44 51.8 °F /  11 °C 44.6 °F /  7 °C 29.8in /  1008.3hPa NW 9.9mph /  16km/h 5.6mph /  9km/h 76% 0in /  0mm 250 W/m2
19:49 51.8 °F /  11 °C 44.6 °F /  7 °C 29.8in /  1008.36hPa NNW 10.6mph /  17km/h 6.2mph /  10km/h 75% 0in /  0mm 193 W/m2
19:54 51.8 °F /  11 °C 44.6 °F /  7 °C 29.8in /  1008.33hPa N 9.9mph /  16km/h 5.6mph /  9km/h 75% 0in /  0mm 162 W/m2
19:59 51.8 °F /  11 °C 44.6 °F /  7 °C 29.8in /  1008.3hPa NNW 11.8mph /  19km/h 7.5mph /  12km/h 76% 0in /  0mm 134 W/m2
20:04 50 °F /  10 °C 44.6 °F /  7 °C 29.8in /  1008.3hPa NNW 8.1mph /  13km/h 6.8mph /  11km/h 77% 0in /  0mm 113 W/m2
20:09 50 °F /  10 °C 44.6 °F /  7 °C 29.8in /  1008.33hPa NNW 7.5mph /  12km/h 5.6mph /  9km/h 79% 0in /  0mm 120 W/m2
20:14 50 °F /  10 °C 44.6 °F /  7 °C 29.8in /  1008.33hPa NNW 8.1mph /  13km/h 5mph /  8km/h 80% 0in /  0mm 120 W/m2
20:19 50 °F /  10 °C 44.6 °F /  7 °C 29.8in /  1008.36hPa WNW 8.1mph /  13km/h 5mph /  8km/h 80% 0in /  0mm 102 W/m2
20:24 50 °F /  10 °C 44.6 °F /  7 °C 29.8in /  1008.4hPa NNW 8.7mph /  14km/h 5.6mph /  9km/h 81% 0in /  0mm 79 W/m2
20:29 50 °F /  10 °C 44.6 °F /  7 °C 29.8in /  1008.5hPa NNW 9.3mph /  15km/h 7.5mph /  12km/h 82% 0in /  0mm 70 W/m2
20:34 50 °F /  10 °C 44.6 °F /  7 °C 29.8in /  1008.5hPa NNW 11.2mph /  18km/h 5.6mph /  9km/h 83% 0in /  0mm 44 W/m2
20:39 48.2 °F /  9 °C 44.6 °F /  7 °C 29.8in /  1008.53hPa NNW 8.7mph /  14km/h 6.2mph /  10km/h 84% 0in /  0mm 37 W/m2
20:44 48.2 °F /  9 °C 44.6 °F /  7 °C 29.8in /  1008.57hPa NNW 9.3mph /  15km/h 6.8mph /  11km/h 84% 0in /  0mm 33 W/m2
20:49 48.2 °F /  9 °C 44.6 °F /  7 °C 29.8in /  1008.6hPa NNW 8.7mph /  14km/h 6.8mph /  11km/h 84% 0in /  0mm 33 W/m2
20:54 48.2 °F /  9 °C 44.6 °F /  7 °C 29.8in /  1008.64hPa NNW 8.7mph /  14km/h 6.2mph /  10km/h 84% 0in /  0mm 37 W/m2
20:59 48.2 °F /  9 °C 44.6 °F /  7 °C 29.8in /  1008.6hPa NW 6.8mph /  11km/h 4.3mph /  7km/h 84% 0in /  0mm 37 W/m2
21:04 48.2 °F /  9 °C 44.6 °F /  7 °C 29.8in /  1008.67hPa NW 10.6mph /  17km/h 6.8mph /  11km/h 84% 0in /  0mm 28 W/m2
21:09 48.2 °F /  9 °C 44.6 °F /  7 °C 29.8in /  1008.7hPa WNW 8.1mph /  13km/h 5.6mph /  9km/h 84% 0in /  0mm 25 W/m2
21:14 48.2 °F /  9 °C 44.6 °F /  7 °C 29.8in /  1008.74hPa NW 9.3mph /  15km/h 6.8mph /  11km/h 84% 0in /  0mm 21 W/m2
21:19 48.2 °F /  9 °C 44.6 °F /  7 °C 29.8in /  1008.81hPa WNW 8.7mph /  14km/h 6.8mph /  11km/h 84% 0in /  0mm 19 W/m2
21:24 48.2 °F /  9 °C 44.6 °F /  7 °C 29.8in /  1008.87hPa NW 9.9mph /  16km/h 7.5mph /  12km/h 85% 0in /  0mm 16 W/m2
21:29 48.2 °F /  9 °C 44.6 °F /  7 °C 29.8in /  1008.87hPa NW 6.8mph /  11km/h 6.8mph /  11km/h 85% 0in /  0mm 14 W/m2
21:34 48.2 °F /  9 °C 44.6 °F /  7 °C 29.8in /  1008.84hPa WNW 8.7mph /  14km/h 6.2mph /  10km/h 85% 0in /  0mm 11 W/m2
21:39 48.2 °F /  9 °C 44.6 °F /  7 °C 29.8in /  1008.84hPa NNW 8.7mph /  14km/h 7.5mph /  12km/h 85% 0in /  0mm 9 W/m2
21:44 48.2 °F /  9 °C 44.6 °F /  7 °C 29.8in /  1008.81hPa NW 6.8mph /  11km/h 5mph /  8km/h 85% 0in /  0mm 5 W/m2
21:49 48.2 °F /  9 °C 44.6 °F /  7 °C 29.8in /  1008.84hPa WNW 7.5mph /  12km/h 3.7mph /  6km/h 85% 0in /  0mm 0 W/m2
21:54 48.2 °F /  9 °C 44.6 °F /  7 °C 29.8in /  1008.87hPa NW 5mph /  8km/h 3.1mph /  5km/h 85% 0in /  0mm 0 W/m2
21:59 48.2 °F /  9 °C 44.6 °F /  7 °C 29.8in /  1008.91hPa NW 5.6mph /  9km/h 3.7mph /  6km/h 85% 0in /  0mm 0 W/m2
22:04 48.2 °F /  9 °C 44.6 °F /  7 °C 29.8in /  1009.04hPa NNW 5.6mph /  9km/h 5.6mph /  9km/h 85% 0in /  0mm 0 W/m2
22:09 48.2 °F /  9 °C 44.6 °F /  7 °C 29.8in /  1009.08hPa WNW 8.7mph /  14km/h 6.8mph /  11km/h 85% 0in /  0mm 0 W/m2
22:14 48.2 °F /  9 °C 44.6 °F /  7 °C 29.8in /  1009.08hPa NNW 6.2mph /  10km/h 4.3mph /  7km/h 86% 0in /  0mm 0 W/m2
22:19 48.2 °F /  9 °C 44.6 °F /  7 °C 29.8in /  1009.04hPa NW 6.8mph /  11km/h 4.3mph /  7km/h 87% 0in /  0mm 0 W/m2
22:24 48.2 °F /  9 °C 44.6 °F /  7 °C 29.8in /  1009.04hPa NW 6.8mph /  11km/h 3.7mph /  6km/h 88% 0in /  0mm 0 W/m2
22:29 46.4 °F /  8 °C 44.6 °F /  7 °C 29.8in /  1009.04hPa WNW 5.6mph /  9km/h 4.3mph /  7km/h 88% 0in /  0mm 0 W/m2
22:34 46.4 °F /  8 °C 44.6 °F /  7 °C 29.8in /  1009.01hPa WNW 5.6mph /  9km/h 3.7mph /  6km/h 88% 0in /  0mm 0 W/m2
22:39 46.4 °F /  8 °C 44.6 °F /  7 °C 29.8in /  1009.01hPa NNW 6.2mph /  10km/h 3.7mph /  6km/h 88% 0in /  0mm 0 W/m2
22:44 46.4 °F /  8 °C 42.8 °F /  6 °C 29.8in /  1009.11hPa NW 6.2mph /  10km/h 3.7mph /  6km/h 88% 0in /  0mm 0 W/m2
22:49 46.4 °F /  8 °C 42.8 °F /  6 °C 29.8in /  1009.11hPa NW 5mph /  8km/h 3.7mph /  6km/h 88% 0in /  0mm 0 W/m2
22:54 46.4 °F /  8 °C 42.8 °F /  6 °C 29.8in /  1009.11hPa NW 6.2mph /  10km/h 3.7mph /  6km/h 88% 0in /  0mm 0 W/m2
22:59 46.4 °F /  8 °C 42.8 °F /  6 °C 29.8in /  1009.08hPa WNW 6.8mph /  11km/h 3.7mph /  6km/h 88% 0in /  0mm 0 W/m2
23:04 46.4 °F /  8 °C 44.6 °F /  7 °C 29.8in /  1009.04hPa NW 5mph /  8km/h 3.7mph /  6km/h 89% 0in /  0mm 0 W/m2
23:09 46.4 °F /  8 °C 44.6 °F /  7 °C 29.8in /  1009.11hPa WNW 8.1mph /  13km/h 4.3mph /  7km/h 89% 0in /  0mm 0 W/m2
23:14 46.4 °F /  8 °C 42.8 °F /  6 °C 29.8in /  1009.14hPa WNW 7.5mph /  12km/h 4.3mph /  7km/h 89% 0in /  0mm 0 W/m2
23:19 46.4 °F /  8 °C 42.8 °F /  6 °C 29.8in /  1009.11hPa WNW 6.2mph /  10km/h 4.3mph /  7km/h 89% 0in /  0mm 0 W/m2
23:24 46.4 °F /  8 °C 42.8 °F /  6 °C 29.8in /  1009.14hPa NW 5.6mph /  9km/h 3.7mph /  6km/h 89% 0in /  0mm 0 W/m2
23:29 46.4 °F /  8 °C 42.8 °F /  6 °C 29.8in /  1009.18hPa WNW 3.7mph /  6km/h 1.9mph /  3km/h 89% 0in /  0mm 0 W/m2
23:34 46.4 °F /  8 °C 42.8 °F /  6 °C 29.8in /  1009.14hPa WNW 3.7mph /  6km/h 2.5mph /  4km/h 89% 0in /  0mm 0 W/m2
23:39 46.4 °F /  8 °C 42.8 °F /  6 °C 29.8in /  1009.11hPa WNW 3.7mph /  6km/h 3.7mph /  6km/h 89% 0in /  0mm 0 W/m2
23:44 46.4 °F /  8 °C 42.8 °F /  6 °C 29.8in /  1009.04hPa W 3.7mph /  6km/h 1.9mph /  3km/h 89% 0in /  0mm 0 W/m2
23:49 46.4 °F /  8 °C 42.8 °F /  6 °C 29.8in /  1009.01hPa W 3.7mph /  6km/h 3.1mph /  5km/h 89% 0in /  0mm 0 W/m2
23:54 46.4 °F /  8 °C 42.8 °F /  6 °C 29.8in /  1009.04hPa WNW 4.3mph /  7km/h 2.5mph /  4km/h 89% 0in /  0mm 0 W/m2
23:59 46.4 °F /  8 °C 42.8 °F /  6 °C 29.8in /  1008.97hPa W 3.1mph /  5km/h 1.2mph /  2km/h 89% 0in /  0mm 0 W/m2
Compliments of Weather Underground - 2 mb